Terminal Aerodrome Forecast
Issued by NWS

Home | Current Version | Previous Version | Text Only | Print | Product List | Glossary On
Versions: 1 2 3 4 5 6 7 8 9 10 11 12
613
FTUS44 KTSA 070527
TAFXNA
TAF
KXNA 070527Z 0706/0806 21005KT P6SM SKC
     FM071600 24010KT P6SM SCT250
     FM071900 29012G20KT P6SM SCT250
     FM080200 30010KT P6SM SKC=

USA.gov is the U.S. government's official web portal to all federal, state and local government web resources and services.